Time;durP1;ratioP1;P1;durP2;ratioP2;P2;SDS_P1;SDS_P2;PMS_P1;PMS_P2;Temp;Humidity;BMP_temperature;BMP_pressure;BME280_temperature;BME280_humidity;BME280_pressure;Samples;Min_cycle;Max_cycle;Signal;HPM_P1;HPM_P2
2023/08/09 00:00:09;;;;;;;4.47;3.78;;;14.70;99.90;;;;;;5043055;28;20438;-70
2023/08/09 00:02:36;;;;;;;5.30;4.05;;;14.70;99.90;;;;;;5038094;28;20535;-69
2023/08/09 00:05:03;;;;;;;4.00;3.70;;;14.80;99.90;;;;;;5041693;28;20420;-70
2023/08/09 00:07:30;;;;;;;4.60;3.70;;;14.80;99.90;;;;;;5030708;28;20765;-72
2023/08/09 00:09:56;;;;;;;4.80;3.70;;;14.80;99.90;;;;;;5036436;28;20535;-70
2023/08/09 00:12:23;;;;;;;4.50;3.80;;;14.80;99.90;;;;;;5038369;28;20433;-70
2023/08/09 00:14:50;;;;;;;4.55;3.80;;;14.80;99.90;;;;;;5042390;28;20433;-71
2023/08/09 00:17:18;;;;;;;4.00;3.60;;;14.80;99.90;;;;;;5040998;28;20414;-70
2023/08/09 00:19:46;;;;;;;4.80;3.30;;;14.90;99.90;;;;;;5041663;28;20914;-71
2023/08/09 00:22:12;;;;;;;5.45;3.80;;;14.90;99.90;;;;;;5036760;28;20528;-71
2023/08/09 00:24:39;;;;;;;4.30;3.30;;;14.90;99.90;;;;;;5041660;28;20409;-70
2023/08/09 00:27:06;;;;;;;4.05;3.50;;;14.90;99.90;;;;;;5037766;28;20419;-71
2023/08/09 00:29:33;;;;;;;3.95;3.55;;;15.00;99.90;;;;;;5043237;28;20432;-71
2023/08/09 00:31:59;;;;;;;5.35;3.80;;;15.00;99.90;;;;;;5054326;28;20419;-71
2023/08/09 00:34:28;;;;;;;4.78;3.78;;;15.00;99.90;;;;;;5045011;28;20444;-71
2023/08/09 00:36:54;;;;;;;4.00;3.60;;;15.00;99.90;;;;;;5045320;28;20439;-72
2023/08/09 00:39:21;;;;;;;4.60;3.40;;;15.10;99.90;;;;;;5035378;28;20850;-70
2023/08/09 00:41:48;;;;;;;4.70;3.90;;;15.10;99.90;;;;;;5043329;28;20424;-70
2023/08/09 00:44:14;;;;;;;5.47;3.80;;;15.10;99.90;;;;;;5040265;28;20445;-71
2023/08/09 00:46:41;;;;;;;5.40;4.30;;;15.20;99.90;;;;;;5046786;28;20501;-73
2023/08/09 00:49:08;;;;;;;4.00;3.60;;;15.10;99.90;;;;;;5044912;28;20417;-72
2023/08/09 00:51:36;;;;;;;5.30;4.35;;;15.20;99.90;;;;;;5045927;28;20548;-69
2023/08/09 00:54:03;;;;;;;6.10;4.60;;;15.20;99.90;;;;;;5045883;28;20429;-71
2023/08/09 00:56:30;;;;;;;5.15;4.53;;;15.10;99.90;;;;;;5051343;28;20421;-70
2023/08/09 00:58:57;;;;;;;5.57;4.53;;;15.10;99.90;;;;;;5043608;28;20445;-70
2023/08/09 01:01:24;;;;;;;4.90;4.20;;;15.10;99.90;;;;;;5044203;28;20403;-70
2023/08/09 01:03:51;;;;;;;5.95;4.65;;;15.10;99.90;;;;;;5042118;28;20453;-71
2023/08/09 01:06:24;;;;;;;4.73;4.23;;;15.10;99.90;;;;;;5046363;28;20432;-70
2023/08/09 01:09:02;;;;;;;5.60;4.40;;;15.10;99.90;;;;;;5045913;28;20877;-70
2023/08/09 01:11:36;;;;;;;5.10;4.60;;;15.10;99.90;;;;;;5045941;28;20429;-70
2023/08/09 01:14:06;;;;;;;4.93;4.53;;;15.10;99.90;;;;;;5043309;28;20447;-73
2023/08/09 01:16:34;;;;;;;5.10;4.30;;;15.10;99.90;;;;;;5045307;28;20409;-69
2023/08/09 01:19:02;;;;;;;6.15;4.80;;;15.10;99.90;;;;;;5046948;22;20447;-69
2023/08/09 01:21:30;;;;;;;5.10;4.60;;;15.10;99.90;;;;;;5043853;28;20408;-69
2023/08/09 01:23:59;;;;;;;5.53;5.03;;;15.10;99.90;;;;;;5046579;28;20831;-69
2023/08/09 01:26:25;;;;;;;6.72;5.18;;;15.10;99.90;;;;;;5050934;28;20444;-69
2023/08/09 01:28:52;;;;;;;6.10;5.00;;;15.10;99.90;;;;;;5043719;28;20448;-69
2023/08/09 01:31:19;;;;;;;5.20;4.70;;;15.10;99.90;;;;;;5040266;28;20438;-69
2023/08/09 01:33:46;;;;;;;6.60;5.57;;;15.10;99.90;;;;;;5045775;28;20863;-70
2023/08/09 01:36:18;;;;;;;5.80;5.30;;;15.10;99.90;;;;;;5035168;28;21005;-69
2023/08/09 01:38:49;;;;;;;5.90;5.30;;;15.10;99.90;;;;;;5038983;28;20777;-69
2023/08/09 01:41:18;;;;;;;6.65;5.95;;;15.10;99.90;;;;;;5035091;28;20879;-69
2023/08/09 01:43:45;;;;;;;6.50;5.90;;;15.10;99.90;;;;;;5045649;28;20429;-68
2023/08/09 01:46:12;;;;;;;6.55;5.95;;;15.10;99.90;;;;;;5036126;28;20441;-69
2023/08/09 01:48:39;;;;;;;6.80;5.80;;;15.10;99.90;;;;;;5038256;28;20405;-69
2023/08/09 01:51:05;;;;;;;6.80;6.00;;;15.10;99.90;;;;;;5046488;28;20433;-69
2023/08/09 01:53:32;;;;;;;7.63;6.70;;;15.10;99.90;;;;;;5034225;28;20442;-69
2023/08/09 01:55:59;;;;;;;7.95;6.18;;;15.10;99.90;;;;;;5044757;28;20418;-69
2023/08/09 01:58:27;;;;;;;8.97;6.47;;;15.10;99.90;;;;;;5041919;28;20453;-69
2023/08/09 02:00:54;;;;;;;8.50;7.70;;;15.10;99.90;;;;;;5032902;28;20431;-69
2023/08/09 02:03:21;;;;;;;8.10;7.30;;;15.10;99.90;;;;;;5048589;28;20919;-70
2023/08/09 02:05:47;;;;;;;9.70;8.25;;;15.10;99.90;;;;;;5040681;28;20418;-69
2023/08/09 02:08:14;;;;;;;7.75;7.03;;;15.10;99.90;;;;;;5036727;28;20790;-70
2023/08/09 02:10:41;;;;;;;6.37;5.47;;;15.10;99.90;;;;;;5030179;28;20427;-70
2023/08/09 02:13:07;;;;;;;5.60;5.10;;;15.10;99.90;;;;;;5045845;28;20413;-69
2023/08/09 02:15:36;;;;;;;5.40;5.00;;;15.10;99.90;;;;;;5028408;28;20430;-69
2023/08/09 02:18:04;;;;;;;5.15;4.75;;;15.00;99.90;;;;;;5032250;28;20418;-70
2023/08/09 02:20:32;;;;;;;5.10;4.43;;;15.00;99.90;;;;;;5043608;28;20409;-68
2023/08/09 02:22:58;;;;;;;4.78;4.38;;;15.00;99.90;;;;;;5043604;28;20413;-69
2023/08/09 02:25:25;;;;;;;5.45;4.95;;;14.90;99.90;;;;;;5031429;28;20419;-70
2023/08/09 02:27:52;;;;;;;5.38;4.88;;;14.80;99.90;;;;;;5038279;28;20451;-69
2023/08/09 02:30:18;;;;;;;5.70;5.10;;;14.80;99.90;;;;;;5039481;28;20426;-70
2023/08/09 02:32:47;;;;;;;5.78;5.10;;;14.80;99.90;;;;;;5032910;28;20434;-70
2023/08/09 02:35:13;;;;;;;5.80;5.30;;;14.70;99.90;;;;;;5034252;28;20970;-69
2023/08/09 02:37:40;;;;;;;6.53;5.82;;;14.70;99.90;;;;;;5045295;28;20434;-69
2023/08/09 02:40:10;;;;;;;7.32;6.65;;;14.70;99.90;;;;;;5038899;28;20697;-69
2023/08/09 02:42:37;;;;;;;7.00;6.40;;;14.70;99.90;;;;;;5029964;28;20443;-69
2023/08/09 02:45:05;;;;;;;8.35;7.55;;;14.70;99.90;;;;;;5031734;28;20447;-69
2023/08/09 02:47:32;;;;;;;8.73;7.93;;;14.70;99.90;;;;;;5042683;28;20421;-69
2023/08/09 02:50:00;;;;;;;7.90;7.10;;;14.70;99.90;;;;;;5036789;28;20419;-69
2023/08/09 02:52:27;;;;;;;7.60;6.93;;;14.70;99.90;;;;;;5029967;28;20411;-69
2023/08/09 02:54:54;;;;;;;7.50;6.80;;;14.70;99.90;;;;;;5030983;28;20445;-69
2023/08/09 02:57:20;;;;;;;8.17;7.37;;;14.60;99.90;;;;;;5039667;28;20419;-68
2023/08/09 02:59:47;;;;;;;8.45;7.55;;;14.70;99.90;;;;;;5028700;28;20438;-69
2023/08/09 03:02:14;;;;;;;8.80;8.00;;;14.60;99.90;;;;;;5036074;28;20443;-69
2023/08/09 03:04:42;;;;;;;8.73;7.97;;;14.60;99.90;;;;;;5039703;28;20932;-69
2023/08/09 03:07:10;;;;;;;9.43;8.52;;;14.60;99.90;;;;;;5030615;28;20758;-70
2023/08/09 03:09:38;;;;;;;10.35;9.35;;;14.60;99.90;;;;;;5036234;28;20433;-69
2023/08/09 03:12:05;;;;;;;10.18;9.18;;;14.70;99.90;;;;;;5042822;28;20481;-69
2023/08/09 03:14:32;;;;;;;8.60;7.90;;;14.70;99.90;;;;;;5031367;28;20783;-69
2023/08/09 03:16:59;;;;;;;7.85;7.15;;;14.60;99.90;;;;;;5043075;28;20438;-69
2023/08/09 03:19:25;;;;;;;7.78;7.07;;;14.60;99.90;;;;;;5042379;28;20884;-69
2023/08/09 03:21:52;;;;;;;7.97;7.18;;;14.50;99.90;;;;;;5029932;28;20416;-69
2023/08/09 03:24:20;;;;;;;7.72;6.97;;;14.50;99.90;;;;;;5039729;28;20903;-70
2023/08/09 03:26:47;;;;;;;7.55;6.85;;;14.50;99.90;;;;;;5030226;28;20929;-69
2023/08/09 03:29:14;;;;;;;6.90;6.20;;;14.50;99.90;;;;;;5037043;28;20407;-69
2023/08/09 03:31:41;;;;;;;8.25;6.95;;;14.40;99.90;;;;;;5027970;28;20431;-69
2023/08/09 03:34:08;;;;;;;7.00;6.40;;;14.50;99.90;;;;;;5028431;28;20442;-69
2023/08/09 03:36:35;;;;;;;7.30;6.60;;;14.40;99.90;;;;;;5043952;28;20429;-70
2023/08/09 03:39:02;;;;;;;6.65;6.05;;;14.40;99.90;;;;;;5035222;28;20434;-70
2023/08/09 03:41:30;;;;;;;7.55;6.30;;;14.30;99.90;;;;;;5028072;28;20514;-70
2023/08/09 03:43:57;;;;;;;7.40;6.70;;;14.40;99.90;;;;;;5037215;28;20439;-68
2023/08/09 03:46:24;;;;;;;7.55;6.85;;;14.40;99.90;;;;;;5028170;28;20435;-69
2023/08/09 03:48:51;;;;;;;7.90;7.10;;;14.30;99.90;;;;;;5038664;28;20413;-70
2023/08/09 03:51:18;;;;;;;9.00;7.40;;;14.30;99.90;;;;;;5038884;28;20433;-69
2023/08/09 03:53:44;;;;;;;9.25;7.60;;;14.30;99.90;;;;;;5029032;28;20438;-69
2023/08/09 03:56:11;;;;;;;8.07;7.03;;;14.40;99.90;;;;;;5027497;28;20405;-70
2023/08/09 03:58:39;;;;;;;7.72;7.03;;;14.30;99.90;;;;;;5044986;28;20413;-69
2023/08/09 04:01:06;;;;;;;7.95;7.25;;;14.40;99.90;;;;;;5037420;28;20515;-69
2023/08/09 04:03:33;;;;;;;8.20;7.40;;;14.40;99.90;;;;;;5036395;28;20471;-69
2023/08/09 04:06:02;;;;;;;9.50;7.40;;;14.40;99.90;;;;;;5039844;28;20415;-70
2023/08/09 04:08:30;;;;;;;7.80;7.00;;;14.40;99.90;;;;;;5032829;28;20913;-70
2023/08/09 04:10:57;;;;;;;9.10;8.20;;;14.40;99.90;;;;;;5046182;28;20437;-70
2023/08/09 04:13:23;;;;;;;8.65;7.72;;;14.40;99.90;;;;;;5043963;28;20418;-70
2023/08/09 04:15:52;;;;;;;10.18;8.70;;;14.40;99.90;;;;;;5056891;28;20435;-70
2023/08/09 04:18:18;;;;;;;10.27;9.27;;;14.40;99.90;;;;;;5062505;28;20414;-70
2023/08/09 04:20:46;;;;;;;9.43;8.53;;;14.40;99.90;;;;;;5057406;28;20403;-71
2023/08/09 04:23:13;;;;;;;9.07;7.80;;;14.40;99.90;;;;;;5035821;28;20434;-68
2023/08/09 04:25:39;;;;;;;8.50;7.47;;;14.40;99.90;;;;;;5041554;28;20467;-70
2023/08/09 04:28:08;;;;;;;8.43;7.63;;;14.30;99.90;;;;;;5040405;28;20426;-70
2023/08/09 04:30:35;;;;;;;9.00;8.10;;;14.20;99.90;;;;;;5033413;28;20443;-69
2023/08/09 04:33:04;;;;;;;9.00;8.10;;;14.20;99.90;;;;;;5033776;28;20411;-70
2023/08/09 04:35:30;;;;;;;9.00;8.10;;;14.20;99.90;;;;;;5039633;28;20414;-69
2023/08/09 04:37:57;;;;;;;9.38;8.40;;;14.20;99.90;;;;;;5042134;28;20422;-71
2023/08/09 04:40:25;;;;;;;7.97;7.18;;;14.30;99.90;;;;;;5027297;28;20492;-69
2023/08/09 04:42:52;;;;;;;8.88;7.90;;;14.20;99.90;;;;;;5039543;28;20414;-71
2023/08/09 04:45:19;;;;;;;9.50;8.60;;;14.20;99.90;;;;;;5042866;28;20422;-69
2023/08/09 04:47:47;;;;;;;7.82;7.03;;;14.20;99.90;;;;;;5026703;28;20466;-69
2023/08/09 04:50:15;;;;;;;8.57;7.78;;;14.20;99.90;;;;;;5032917;28;20447;-69
2023/08/09 04:52:43;;;;;;;9.13;8.27;;;14.20;99.90;;;;;;5031271;28;20434;-69
2023/08/09 04:55:10;;;;;;;9.63;8.68;;;14.20;99.90;;;;;;5035578;28;20506;-69
2023/08/09 04:57:38;;;;;;;10.60;9.50;;;14.20;99.90;;;;;;5028515;28;20435;-68
2023/08/09 05:00:08;;;;;;;10.30;9.20;;;14.30;99.90;;;;;;5032447;28;20514;-70
2023/08/09 05:02:36;;;;;;;10.80;9.70;;;14.30;99.90;;;;;;5033199;28;20495;-70
2023/08/09 05:05:03;;;;;;;10.80;9.80;;;14.30;99.90;;;;;;5028802;28;20916;-69
2023/08/09 05:07:31;;;;;;;12.13;10.83;;;14.30;99.90;;;;;;5037280;28;20481;-69
2023/08/09 05:09:58;;;;;;;12.70;11.40;;;14.40;99.90;;;;;;5023159;28;20441;-69
2023/08/09 05:12:24;;;;;;;13.50;12.10;;;14.40;99.90;;;;;;5028278;28;20429;-70
2023/08/09 05:14:51;;;;;;;13.40;12.10;;;14.40;99.90;;;;;;5038907;28;20417;-69
2023/08/09 05:17:18;;;;;;;13.82;12.43;;;14.40;99.90;;;;;;5038827;28;20438;-69
2023/08/09 05:19:45;;;;;;;12.85;11.55;;;14.40;99.90;;;;;;5031913;28;20419;-71
2023/08/09 05:22:12;;;;;;;13.85;12.55;;;14.40;99.90;;;;;;5036307;28;20424;-70
2023/08/09 05:24:40;;;;;;;14.63;13.23;;;14.40;99.90;;;;;;5043198;28;20793;-70
2023/08/09 05:27:07;;;;;;;16.27;14.57;;;14.40;99.90;;;;;;5028315;28;20446;-70
2023/08/09 05:29:34;;;;;;;15.10;13.70;;;14.40;99.90;;;;;;5038582;28;20473;-71
2023/08/09 05:32:02;;;;;;;13.88;12.55;;;14.50;99.90;;;;;;5033770;28;20469;-71
2023/08/09 05:34:29;;;;;;;12.43;11.23;;;14.60;99.90;;;;;;5028567;28;20447;-71
2023/08/09 05:36:56;;;;;;;11.50;10.40;;;14.60;99.90;;;;;;5030123;28;20444;-69
2023/08/09 05:39:23;;;;;;;12.20;11.00;;;14.60;99.90;;;;;;5038528;28;20470;-70
2023/08/09 05:41:51;;;;;;;12.40;11.20;;;14.70;99.90;;;;;;5029419;28;20442;-70
2023/08/09 05:44:18;;;;;;;14.52;13.13;;;14.70;99.90;;;;;;5035283;28;20807;-70
2023/08/09 05:46:44;;;;;;;13.80;12.50;;;14.80;99.90;;;;;;5031597;28;20426;-72
2023/08/09 05:49:11;;;;;;;13.98;12.57;;;14.80;99.90;;;;;;5029942;28;20961;-70
2023/08/09 05:51:38;;;;;;;12.97;11.70;;;14.90;99.90;;;;;;5041692;28;20425;-69
2023/08/09 05:54:05;;;;;;;10.75;9.80;;;14.90;99.90;;;;;;5037951;28;20441;-70
2023/08/09 05:56:31;;;;;;;9.87;9.07;;;14.90;99.90;;;;;;5031683;28;20437;-71
2023/08/09 05:59:00;;;;;;;10.73;9.73;;;14.80;99.90;;;;;;5043093;28;20529;-69
2023/08/09 06:01:28;;;;;;;10.27;9.38;;;14.80;99.90;;;;;;5039674;28;20428;-70
2023/08/09 06:03:55;;;;;;;10.30;9.40;;;14.80;99.90;;;;;;5042186;28;20569;-70
2023/08/09 06:06:22;;;;;;;10.82;9.93;;;14.90;99.90;;;;;;5032583;28;20454;-70
2023/08/09 06:08:49;;;;;;;10.10;9.20;;;14.90;99.90;;;;;;5031172;28;20415;-70
2023/08/09 06:11:16;;;;;;;9.68;8.77;;;15.00;99.90;;;;;;5035377;28;20549;-70
2023/08/09 06:13:43;;;;;;;9.63;8.82;;;15.10;99.90;;;;;;5042618;28;20418;-70
2023/08/09 06:16:11;;;;;;;9.52;8.65;;;15.20;99.90;;;;;;5032357;28;20435;-69
2023/08/09 06:18:37;;;;;;;8.73;7.93;;;15.20;99.90;;;;;;5038640;28;20423;-70
2023/08/09 06:21:05;;;;;;;8.45;7.75;;;15.30;99.90;;;;;;5040595;28;20780;-70
2023/08/09 06:23:32;;;;;;;8.48;7.68;;;15.30;99.90;;;;;;5040363;28;20419;-70
2023/08/09 06:25:59;;;;;;;8.07;7.38;;;15.30;99.90;;;;;;5046356;28;20505;-70
2023/08/09 06:28:26;;;;;;;7.25;6.68;;;15.30;99.90;;;;;;5037840;28;20856;-71
2023/08/09 06:30:53;;;;;;;7.70;7.10;;;15.40;99.90;;;;;;5032872;28;20921;-69
2023/08/09 06:33:21;;;;;;;7.78;7.18;;;15.50;99.90;;;;;;5047288;28;20425;-70
2023/08/09 06:35:48;;;;;;;7.10;6.50;;;15.60;99.90;;;;;;5045021;28;20912;-70
2023/08/09 06:38:15;;;;;;;6.40;5.90;;;15.70;99.90;;;;;;5028565;28;20437;-70
2023/08/09 06:40:42;;;;;;;6.50;5.90;;;15.80;99.90;;;;;;5047192;28;20485;-69
2023/08/09 06:43:08;;;;;;;5.13;4.72;;;15.90;99.90;;;;;;5045614;28;20425;-71
2023/08/09 06:45:36;;;;;;;5.32;4.82;;;15.90;99.90;;;;;;5032875;28;20478;-70
2023/08/09 06:48:03;;;;;;;5.40;4.90;;;16.00;99.90;;;;;;5047277;28;20423;-70
2023/08/09 06:50:31;;;;;;;5.90;5.40;;;16.00;99.90;;;;;;5053443;28;20431;-70
2023/08/09 06:52:57;;;;;;;5.72;5.22;;;16.00;99.90;;;;;;5051553;28;20479;-71
2023/08/09 06:55:24;;;;;;;6.40;5.80;;;16.00;99.90;;;;;;5061464;28;20413;-71
2023/08/09 06:57:51;;;;;;;6.82;6.22;;;15.90;99.90;;;;;;5055183;28;20459;-73
2023/08/09 07:00:19;;;;;;;6.50;5.90;;;15.90;99.90;;;;;;5059470;28;20419;-72
2023/08/09 07:02:46;;;;;;;6.40;5.80;;;15.90;99.90;;;;;;5069407;28;20416;-71
2023/08/09 07:05:18;;;;;;;7.10;6.50;;;16.00;99.90;;;;;;5042394;28;20419;-70
2023/08/09 07:07:47;;;;;;;6.10;5.60;;;16.10;99.90;;;;;;5030845;28;20430;-70
2023/08/09 07:10:16;;;;;;;6.88;6.28;;;16.20;99.90;;;;;;5036418;28;20435;-71
2023/08/09 07:12:43;;;;;;;5.00;4.60;;;16.20;99.90;;;;;;5048557;28;20994;-71
2023/08/09 07:15:10;;;;;;;5.93;5.43;;;16.30;99.90;;;;;;5043103;28;20885;-69
2023/08/09 07:20:07;;;;;;;5.20;4.70;;;16.30;99.90;;;;;;5049206;28;20486;-68
2023/08/09 07:22:33;;;;;;;4.90;4.50;;;16.30;99.90;;;;;;5055043;28;20427;-69
2023/08/09 07:25:02;;;;;;;5.30;4.80;;;16.30;99.90;;;;;;5063438;28;20765;-70
2023/08/09 07:27:29;;;;;;;5.93;5.32;;;16.30;99.90;;;;;;5063747;28;20769;-71
2023/08/09 07:29:55;;;;;;;5.63;5.13;;;16.40;99.90;;;;;;5040622;28;20448;-70
2023/08/09 07:32:22;;;;;;;5.50;5.00;;;16.50;99.90;;;;;;5045255;28;20433;-69
2023/08/09 07:34:50;;;;;;;5.10;4.60;;;16.60;99.90;;;;;;5035138;28;20411;-68
2023/08/09 07:37:16;;;;;;;4.68;4.28;;;16.70;99.90;;;;;;5027495;28;20454;-69
2023/08/09 07:39:43;;;;;;;5.15;4.50;;;16.60;99.90;;;;;;5041043;28;20425;-69
2023/08/09 07:42:11;;;;;;;4.90;4.50;;;16.50;99.90;;;;;;5037213;28;20477;-69
2023/08/09 07:44:38;;;;;;;5.05;4.55;;;16.40;99.90;;;;;;5036719;28;20838;-69
2023/08/09 07:47:05;;;;;;;4.70;4.30;;;16.30;99.90;;;;;;5035660;28;20472;-69
2023/08/09 07:49:32;;;;;;;4.65;4.25;;;16.30;99.90;;;;;;5030687;28;20558;-69
2023/08/09 07:51:59;;;;;;;5.90;5.40;;;16.20;99.90;;;;;;5036632;28;20452;-69
2023/08/09 07:54:25;;;;;;;5.40;4.90;;;16.20;99.90;;;;;;5030799;28;20440;-69
2023/08/09 07:56:52;;;;;;;5.47;4.82;;;16.20;99.90;;;;;;5037253;28;20433;-69
2023/08/09 07:59:20;;;;;;;5.50;5.10;;;16.20;99.90;;;;;;5038037;28;20413;-69
2023/08/09 08:01:47;;;;;;;6.20;4.93;;;16.30;99.90;;;;;;5040363;28;20441;-69
2023/08/09 08:04:14;;;;;;;5.43;4.93;;;16.40;99.90;;;;;;5043113;28;20437;-69
2023/08/09 08:06:41;;;;;;;5.32;4.88;;;16.40;99.90;;;;;;5034944;28;20449;-69
2023/08/09 08:09:12;;;;;;;6.45;5.85;;;16.40;99.90;;;;;;5037997;28;20569;-69
2023/08/09 08:11:39;;;;;;;5.33;4.83;;;16.50;99.90;;;;;;5041558;28;20851;-69
2023/08/09 08:14:06;;;;;;;5.20;4.70;;;16.60;99.90;;;;;;5034037;28;20493;-69
2023/08/09 08:16:34;;;;;;;4.90;4.50;;;16.70;99.90;;;;;;5031322;28;20449;-69
2023/08/09 08:19:01;;;;;;;4.97;4.57;;;17.00;99.90;;;;;;5043805;28;20891;-69
2023/08/09 08:21:28;;;;;;;4.80;4.40;;;17.30;99.60;;;;;;5057471;28;20416;-68
2023/08/09 08:23:56;;;;;;;5.10;4.70;;;17.70;98.90;;;;;;5058211;28;20408;-70
2023/08/09 08:26:23;;;;;;;4.20;3.90;;;18.00;97.80;;;;;;5058603;28;20523;-68
2023/08/09 08:28:49;;;;;;;3.88;3.58;;;18.30;96.40;;;;;;5057004;28;20948;-71
2023/08/09 08:31:19;;;;;;;4.20;3.90;;;18.50;96.20;;;;;;5056411;28;20890;-70
2023/08/09 08:33:49;;;;;;;4.00;3.70;;;18.70;95.00;;;;;;5061332;28;20506;-70
2023/08/09 08:36:16;;;;;;;4.00;3.70;;;18.80;95.00;;;;;;5058031;28;20628;-70
2023/08/09 08:38:43;;;;;;;4.00;3.60;;;19.10;94.40;;;;;;5060811;28;20431;-69
2023/08/09 08:41:10;;;;;;;3.67;3.37;;;19.30;93.20;;;;;;5060146;28;20435;-69
2023/08/09 08:43:37;;;;;;;3.40;3.10;;;19.70;92.60;;;;;;5058778;28;20469;-69
2023/08/09 08:46:05;;;;;;;3.45;3.10;;;19.90;91.40;;;;;;5059053;28;20868;-69
2023/08/09 08:48:33;;;;;;;3.20;2.90;;;20.20;89.70;;;;;;5055477;28;20850;-69
2023/08/09 08:51:02;;;;;;;3.58;3.28;;;20.30;88.80;;;;;;5058987;28;20529;-70
2023/08/09 08:53:30;;;;;;;2.90;2.70;;;20.50;87.10;;;;;;5056926;28;20459;-69
2023/08/09 08:55:57;;;;;;;3.30;3.00;;;20.70;84.70;;;;;;5060491;28;20424;-69
2023/08/09 08:58:24;;;;;;;2.88;2.58;;;20.80;84.00;;;;;;5065326;28;20545;-69
2023/08/09 09:00:51;;;;;;;3.00;2.70;;;20.80;83.70;;;;;;5065282;28;20893;-69
2023/08/09 09:03:17;;;;;;;4.65;2.80;;;20.90;79.70;;;;;;5062391;28;20432;-69
2023/08/09 09:05:44;;;;;;;2.85;2.65;;;21.00;82.40;;;;;;5054599;28;20436;-69
2023/08/09 09:08:13;;;;;;;3.22;2.92;;;21.20;81.10;;;;;;5062913;28;20419;-69
2023/08/09 09:10:44;;;;;;;2.58;2.38;;;21.30;79.40;;;;;;5053943;28;20418;-69
2023/08/09 09:13:23;;;;;;;3.13;2.58;;;21.50;79.80;;;;;;5059301;28;20500;-69
2023/08/09 09:15:50;;;;;;;2.70;2.50;;;21.70;79.20;;;;;;5060862;28;20431;-69
2023/08/09 09:18:20;;;;;;;2.58;2.38;;;21.80;75.80;;;;;;5057734;28;20443;-69
2023/08/09 09:20:48;;;;;;;3.00;2.70;;;21.80;75.70;;;;;;5058149;28;20411;-69
2023/08/09 09:23:27;;;;;;;2.67;2.20;;;21.70;75.00;;;;;;5064153;28;20455;-70
2023/08/09 09:26:05;;;;;;;2.38;2.15;;;21.50;75.60;;;;;;5061916;28;20532;-70
2023/08/09 09:28:38;;;;;;;3.47;2.63;;;21.20;76.60;;;;;;5064494;28;20404;-70
2023/08/09 09:31:05;;;;;;;2.97;2.30;;;20.90;77.40;;;;;;5062120;28;20477;-70
2023/08/09 09:33:35;;;;;;;2.85;2.20;;;20.80;77.40;;;;;;5065044;28;20428;-70
2023/08/09 09:36:02;;;;;;;3.20;2.40;;;20.70;75.50;;;;;;5056727;28;20417;-69
2023/08/09 09:38:32;;;;;;;2.75;2.25;;;20.80;76.60;;;;;;5060487;28;20482;-70
2023/08/09 09:41:01;;;;;;;3.20;2.40;;;20.90;77.00;;;;;;5054313;28;20561;-70
2023/08/09 09:43:32;;;;;;;3.55;2.50;;;21.00;75.30;;;;;;5059900;28;20418;-70
2023/08/09 09:45:58;;;;;;;2.58;2.38;;;21.00;76.30;;;;;;5063710;28;20921;-69
2023/08/09 09:48:26;;;;;;;2.93;2.17;;;20.90;72.80;;;;;;5065585;28;20418;-69
2023/08/09 09:50:53;;;;;;;2.80;2.47;;;20.90;73.30;;;;;;5063266;28;20427;-70
2023/08/09 09:53:21;;;;;;;2.50;2.30;;;20.80;73.30;;;;;;5065077;28;20798;-69
2023/08/09 09:55:50;;;;;;;3.17;2.45;;;20.90;70.80;;;;;;5062790;28;20539;-69
2023/08/09 09:58:17;;;;;;;3.30;2.50;;;20.90;71.20;;;;;;5064880;28;20506;-69
2023/08/09 10:00:47;;;;;;;2.42;2.20;;;20.90;72.80;;;;;;5060522;28;20428;-70
2023/08/09 10:03:16;;;;;;;3.00;2.40;;;20.90;73.40;;;;;;5063372;28;20898;-70
2023/08/09 10:05:46;;;;;;;3.60;2.22;;;20.90;73.90;;;;;;5058466;28;20483;-69
2023/08/09 10:08:14;;;;;;;2.42;2.15;;;20.90;75.20;;;;;;5061262;28;20748;-70
2023/08/09 10:10:44;;;;;;;2.47;2.28;;;21.20;72.10;;;;;;5064289;28;20423;-69
2023/08/09 10:13:21;;;;;;;2.40;2.10;;;21.50;72.40;;;;;;5059220;28;20427;-69
2023/08/09 10:15:51;;;;;;;2.53;2.33;;;21.90;69.80;;;;;;5059069;28;20881;-69
2023/08/09 10:18:23;;;;;;;2.50;2.30;;;21.90;68.10;;;;;;5064803;28;20773;-70
2023/08/09 10:20:52;;;;;;;2.80;2.50;;;21.70;67.10;;;;;;5061582;28;20412;-69
2023/08/09 10:23:23;;;;;;;2.80;2.60;;;21.50;66.60;;;;;;5055089;28;20427;-70
2023/08/09 10:25:51;;;;;;;3.20;2.80;;;21.30;63.80;;;;;;5061049;28;20904;-69
2023/08/09 10:28:19;;;;;;;3.70;2.30;;;21.10;66.10;;;;;;5061473;28;20888;-70
2023/08/09 10:30:48;;;;;;;4.88;2.40;;;21.30;68.00;;;;;;5064033;28;20419;-69
2023/08/09 10:33:18;;;;;;;2.60;2.30;;;21.70;68.80;;;;;;5060037;28;20932;-70
2023/08/09 10:35:48;;;;;;;4.15;2.30;;;22.20;64.00;;;;;;5063213;28;20509;-70
2023/08/09 10:38:17;;;;;;;3.80;2.20;;;22.50;60.70;;;;;;5058544;28;20525;-70
2023/08/09 10:40:44;;;;;;;2.58;2.38;;;22.70;60.00;;;;;;5070420;28;20427;-69
2023/08/09 10:43:18;;;;;;;2.40;2.20;;;22.70;55.60;;;;;;5057004;28;20429;-69
2023/08/09 10:45:46;;;;;;;2.70;2.50;;;22.70;55.90;;;;;;5067281;28;20474;-68
2023/08/09 10:48:22;;;;;;;2.63;2.25;;;22.70;58.50;;;;;;5063788;28;20465;-70
2023/08/09 10:51:01;;;;;;;2.60;2.40;;;22.80;59.20;;;;;;5057683;28;20465;-70
2023/08/09 10:53:28;;;;;;;2.97;2.40;;;23.00;53.20;;;;;;5056840;28;20902;-70
2023/08/09 10:55:57;;;;;;;2.60;2.40;;;23.10;53.40;;;;;;5054937;28;20442;-70
2023/08/09 10:58:29;;;;;;;2.80;2.30;;;23.40;53.50;;;;;;5063208;28;20862;-70
2023/08/09 11:00:56;;;;;;;2.85;2.33;;;23.70;50.30;;;;;;5056213;28;20471;-69
2023/08/09 11:03:23;;;;;;;2.50;2.30;;;23.70;49.30;;;;;;5061784;28;20411;-69
2023/08/09 11:05:50;;;;;;;2.80;2.60;;;23.70;47.30;;;;;;5056204;28;20854;-69
2023/08/09 11:08:18;;;;;;;3.13;2.83;;;23.40;47.90;;;;;;5060377;28;20470;-69
2023/08/09 11:10:49;;;;;;;3.00;2.70;;;23.40;49.00;;;;;;5061936;28;22407;-69
2023/08/09 11:13:19;;;;;;;2.70;2.50;;;23.50;49.40;;;;;;5062037;28;20435;-69
2023/08/09 11:15:48;;;;;;;3.78;2.67;;;23.60;50.80;;;;;;5061421;28;20484;-69
2023/08/09 11:18:16;;;;;;;3.80;2.73;;;23.70;50.00;;;;;;5061653;28;20807;-69
2023/08/09 11:20:43;;;;;;;2.50;2.22;;;23.80;50.30;;;;;;5065604;28;20906;-69
2023/08/09 11:23:10;;;;;;;2.85;2.63;;;24.00;49.50;;;;;;5061646;28;20425;-69
2023/08/09 11:25:37;;;;;;;3.90;2.80;;;24.10;50.50;;;;;;5058153;28;20428;-69
2023/08/09 11:28:06;;;;;;;2.47;2.10;;;24.20;50.40;;;;;;5059783;28;20553;-69
2023/08/09 11:30:34;;;;;;;3.00;2.70;;;24.20;47.20;;;;;;5062155;28;20517;-70
2023/08/09 11:33:03;;;;;;;3.20;2.90;;;24.10;47.90;;;;;;5061417;28;20539;-69
2023/08/09 11:35:36;;;;;;;3.13;2.85;;;23.90;48.30;;;;;;5057209;28;20418;-69
2023/08/09 11:38:07;;;;;;;2.40;2.20;;;24.00;48.80;;;;;;5060955;28;20533;-70
2023/08/09 11:40:41;;;;;;;2.60;2.40;;;23.90;47.50;;;;;;5053977;28;20442;-69
2023/08/09 11:43:11;;;;;;;3.60;2.40;;;23.90;47.80;;;;;;5057755;28;20503;-70
2023/08/09 11:45:44;;;;;;;2.70;2.50;;;23.90;47.50;;;;;;5061817;28;20475;-70
2023/08/09 11:48:23;;;;;;;2.60;2.40;;;23.90;49.30;;;;;;5056701;28;20508;-70
2023/08/09 11:50:59;;;;;;;3.20;2.50;;;23.80;46.40;;;;;;5056443;28;20437;-70
2023/08/09 11:53:26;;;;;;;3.05;2.75;;;23.60;47.70;;;;;;5048510;28;20427;-69
2023/08/09 11:55:59;;;;;;;2.50;2.30;;;23.60;47.70;;;;;;5058928;28;20432;-69
2023/08/09 11:58:25;;;;;;;2.67;2.47;;;23.40;48.30;;;;;;5057711;28;20447;-69
2023/08/09 12:00:53;;;;;;;2.60;2.40;;;23.40;48.20;;;;;;5053454;28;20433;-69
2023/08/09 12:03:22;;;;;;;2.30;2.00;;;23.50;48.00;;;;;;5050908;28;20432;-69
2023/08/09 12:05:52;;;;;;;2.70;2.50;;;23.50;49.90;;;;;;5056686;28;20431;-70
2023/08/09 12:08:32;;;;;;;2.50;2.30;;;23.60;47.80;;;;;;5052882;28;20443;-69
2023/08/09 12:10:59;;;;;;;2.90;2.60;;;23.60;48.80;;;;;;5060482;28;20510;-70
2023/08/09 12:13:26;;;;;;;4.25;2.60;;;23.60;48.20;;;;;;5059555;28;20433;-70
2023/08/09 12:15:52;;;;;;;3.00;2.80;;;23.50;49.70;;;;;;5059068;28;20415;-69
2023/08/09 12:18:19;;;;;;;3.08;2.83;;;23.40;52.70;;;;;;5061723;28;20419;-70
2023/08/09 12:20:47;;;;;;;2.88;2.67;;;23.40;51.60;;;;;;5059062;28;20412;-69
2023/08/09 12:23:14;;;;;;;3.00;2.70;;;23.50;52.80;;;;;;5068861;28;21053;-70
2023/08/09 12:25:43;;;;;;;2.60;2.30;;;23.80;51.80;;;;;;5061413;28;20404;-70
2023/08/09 12:28:10;;;;;;;2.40;2.20;;;24.20;50.50;;;;;;5070437;28;20433;-70
2023/08/09 12:30:37;;;;;;;2.27;2.07;;;24.70;48.30;;;;;;5065094;28;20482;-70
2023/08/09 12:33:05;;;;;;;2.20;2.00;;;24.90;47.50;;;;;;5068414;28;20692;-70
2023/08/09 12:35:31;;;;;;;3.72;2.30;;;24.90;46.90;;;;;;5059342;28;20486;-70
2023/08/09 12:37:59;;;;;;;2.47;2.27;;;24.80;48.90;;;;;;5062310;28;20975;-69
2023/08/09 12:40:26;;;;;;;2.50;2.30;;;24.60;45.50;;;;;;5065072;28;20415;-69
2023/08/09 12:42:53;;;;;;;2.60;2.40;;;24.30;47.20;;;;;;5063745;28;20751;-70
2023/08/09 12:45:20;;;;;;;2.70;2.50;;;24.10;49.50;;;;;;5066131;28;20750;-69
2023/08/09 12:47:46;;;;;;;2.30;2.10;;;23.90;51.30;;;;;;5065139;28;20427;-70
2023/08/09 12:50:13;;;;;;;3.00;2.40;;;24.00;51.30;;;;;;5061768;28;20451;-70